Terminal Aerodrome Forecast
Issued by NWS Albuquerque, NM

Home | Current Version | Previous Version | Text Only | Print | Product List | Glossary On
Versions: 1 2 3 4 5 6 7 8 9 10 11 12 13 14
000
FTUS45 KABQ 200500
TAFABQ
TAF
KABQ 200520Z 2006/2106 09010KT P6SM SKC
     FM201100 03005KT P6SM FEW025
     FM201400 36005KT P6SM SKC
     FM202100 09015G25KT P6SM SKC
     FM210100 09020G30KT P6SM SCT050
     FM210500 09020G30KT P6SM SCT025 BKN050=

USA.gov is the U.S. government's official web portal to all federal, state and local government web resources and services.